sensor_id;sensor_type;location;lat;lon;timestamp;P1;durP1;ratioP1;P2;durP2;ratioP2
49980;SDS011;35871;51.594;7.138;2024-01-15T06:54:24;8.00;;;4.85;;
49980;SDS011;35871;51.594;7.138;2024-01-15T06:59:26;7.90;;;4.30;;
49980;SDS011;35871;51.594;7.138;2024-01-15T07:04:27;7.50;;;3.53;;
49980;SDS011;35871;51.594;7.138;2024-01-15T07:09:28;4.85;;;3.40;;
49980;SDS011;35871;51.594;7.138;2024-01-15T07:14:29;4.25;;;2.67;;
49980;SDS011;35871;51.594;7.138;2024-01-15T07:19:30;7.50;;;4.82;;
49980;SDS011;35871;51.594;7.138;2024-01-15T07:24:31;4.68;;;2.70;;
49980;SDS011;35871;51.594;7.138;2024-01-15T07:29:35;4.00;;;2.85;;
49980;SDS011;35871;51.594;7.138;2024-01-15T07:34:37;3.90;;;2.80;;
49980;SDS011;35871;51.594;7.138;2024-01-15T07:39:38;4.50;;;2.70;;
49980;SDS011;35871;51.594;7.138;2024-01-15T07:44:39;5.70;;;3.25;;
49980;SDS011;35871;51.594;7.138;2024-01-15T07:49:40;2.97;;;1.70;;
49980;SDS011;35871;51.594;7.138;2024-01-15T07:54:41;3.97;;;2.58;;
49980;SDS011;35871;51.594;7.138;2024-01-15T07:59:42;3.30;;;2.45;;
49980;SDS011;35871;51.594;7.138;2024-01-15T08:04:43;2.83;;;1.90;;
49980;SDS011;35871;51.594;7.138;2024-01-15T08:09:45;2.70;;;1.65;;
49980;SDS011;35871;51.594;7.138;2024-01-15T08:14:47;2.58;;;1.60;;
49980;SDS011;35871;51.594;7.138;2024-01-15T08:19:48;4.03;;;2.00;;
49980;SDS011;35871;51.594;7.138;2024-01-15T08:24:49;4.97;;;1.90;;
49980;SDS011;35871;51.594;7.138;2024-01-15T08:29:51;3.72;;;3.13;;
49980;SDS011;35871;51.594;7.138;2024-01-15T08:34:53;4.13;;;2.50;;
49980;SDS011;35871;51.594;7.138;2024-01-15T08:39:54;3.08;;;1.90;;
49980;SDS011;35871;51.594;7.138;2024-01-15T08:44:55;3.40;;;2.20;;
49980;SDS011;35871;51.594;7.138;2024-01-15T08:49:56;5.95;;;2.28;;
49980;SDS011;35871;51.594;7.138;2024-01-15T08:59:58;4.05;;;3.25;;
49980;SDS011;35871;51.594;7.138;2024-01-15T09:10:00;3.95;;;2.17;;
49980;SDS011;35871;51.594;7.138;2024-01-15T09:15:01;3.38;;;2.10;;
49980;SDS011;35871;51.594;7.138;2024-01-15T09:20:04;3.50;;;2.40;;
49980;SDS011;35871;51.594;7.138;2024-01-15T09:25:05;3.55;;;2.38;;
49980;SDS011;35871;51.594;7.138;2024-01-15T09:35:08;2.28;;;1.83;;
49980;SDS011;35871;51.594;7.138;2024-01-15T09:40:12;3.95;;;2.33;;
49980;SDS011;35871;51.594;7.138;2024-01-15T09:45:14;6.30;;;4.88;;
49980;SDS011;35871;51.594;7.138;2024-01-15T09:50:16;2.97;;;1.92;;
49980;SDS011;35871;51.594;7.138;2024-01-15T09:55:17;2.92;;;2.10;;
49980;SDS011;35871;51.594;7.138;2024-01-15T10:00:18;2.10;;;1.58;;
49980;SDS011;35871;51.594;7.138;2024-01-15T10:05:19;3.63;;;2.95;;
49980;SDS011;35871;51.594;7.138;2024-01-15T10:10:21;3.00;;;2.08;;
49980;SDS011;35871;51.594;7.138;2024-01-15T10:15:22;4.97;;;2.60;;
49980;SDS011;35871;51.594;7.138;2024-01-15T10:20:23;2.20;;;1.70;;
49980;SDS011;35871;51.594;7.138;2024-01-15T10:30:26;3.58;;;2.97;;
49980;SDS011;35871;51.594;7.138;2024-01-15T10:35:27;3.50;;;2.40;;
49980;SDS011;35871;51.594;7.138;2024-01-15T10:40:28;3.15;;;1.95;;
49980;SDS011;35871;51.594;7.138;2024-01-15T10:45:29;3.05;;;2.53;;
49980;SDS011;35871;51.594;7.138;2024-01-15T10:50:30;3.78;;;2.70;;
49980;SDS011;35871;51.594;7.138;2024-01-15T10:55:33;3.72;;;2.63;;
49980;SDS011;35871;51.594;7.138;2024-01-15T11:00:37;3.63;;;2.42;;
49980;SDS011;35871;51.594;7.138;2024-01-15T11:05:39;3.55;;;2.35;;
49980;SDS011;35871;51.594;7.138;2024-01-15T11:10:43;2.80;;;2.17;;
49980;SDS011;35871;51.594;7.138;2024-01-15T11:16:09;2.78;;;2.05;;
49980;SDS011;35871;51.594;7.138;2024-01-15T11:32:02;3.70;;;1.95;;
49980;SDS011;35871;51.594;7.138;2024-01-15T11:41:58;2.92;;;1.60;;
49980;SDS011;35871;51.594;7.138;2024-01-15T11:52:03;3.50;;;1.70;;
49980;SDS011;35871;51.594;7.138;2024-01-15T11:57:09;2.67;;;1.38;;
49980;SDS011;35871;51.594;7.138;2024-01-15T12:02:11;5.22;;;2.85;;
49980;SDS011;35871;51.594;7.138;2024-01-15T12:07:13;3.10;;;1.88;;
49980;SDS011;35871;51.594;7.138;2024-01-15T12:12:16;2.40;;;1.50;;
49980;SDS011;35871;51.594;7.138;2024-01-15T12:17:21;3.67;;;1.70;;
49980;SDS011;35871;51.594;7.138;2024-01-15T12:22:23;3.00;;;1.38;;
49980;SDS011;35871;51.594;7.138;2024-01-15T12:32:25;4.15;;;1.85;;
49980;SDS011;35871;51.594;7.138;2024-01-15T12:37:26;2.42;;;1.50;;
49980;SDS011;35871;51.594;7.138;2024-01-15T12:47:28;2.92;;;1.42;;
49980;SDS011;35871;51.594;7.138;2024-01-15T12:52:29;4.20;;;2.20;;
49980;SDS011;35871;51.594;7.138;2024-01-15T12:57:31;2.85;;;1.30;;
49980;SDS011;35871;51.594;7.138;2024-01-15T13:02:33;2.53;;;1.20;;
49980;SDS011;35871;51.594;7.138;2024-01-15T13:07:34;3.63;;;1.85;;
49980;SDS011;35871;51.594;7.138;2024-01-15T13:12:35;2.45;;;1.20;;
49980;SDS011;35871;51.594;7.138;2024-01-15T13:17:36;4.18;;;1.40;;
49980;SDS011;35871;51.594;7.138;2024-01-15T13:22:37;2.67;;;1.60;;
49980;SDS011;35871;51.594;7.138;2024-01-15T13:27:39;2.45;;;1.25;;
49980;SDS011;35871;51.594;7.138;2024-01-15T13:37:42;5.20;;;2.58;;
49980;SDS011;35871;51.594;7.138;2024-01-15T13:42:43;4.22;;;1.60;;
49980;SDS011;35871;51.594;7.138;2024-01-15T13:47:44;2.70;;;1.40;;
49980;SDS011;35871;51.594;7.138;2024-01-15T13:52:45;2.92;;;1.30;;
49980;SDS011;35871;51.594;7.138;2024-01-15T13:57:46;3.08;;;1.33;;
49980;SDS011;35871;51.594;7.138;2024-01-15T14:02:47;1.80;;;1.00;;
49980;SDS011;35871;51.594;7.138;2024-01-15T14:12:49;2.00;;;1.03;;
49980;SDS011;35871;51.594;7.138;2024-01-15T14:17:50;2.55;;;1.10;;
49980;SDS011;35871;51.594;7.138;2024-01-15T14:22:52;3.58;;;1.80;;
49980;SDS011;35871;51.594;7.138;2024-01-15T14:27:54;3.17;;;1.10;;
49980;SDS011;35871;51.594;7.138;2024-01-15T14:32:55;2.80;;;0.95;;
49980;SDS011;35871;51.594;7.138;2024-01-15T14:37:56;4.28;;;1.15;;
49980;SDS011;35871;51.594;7.138;2024-01-15T14:42:58;3.55;;;0.85;;
49980;SDS011;35871;51.594;7.138;2024-01-15T14:47:59;4.00;;;0.90;;
49980;SDS011;35871;51.594;7.138;2024-01-15T14:53:00;2.05;;;1.00;;
49980;SDS011;35871;51.594;7.138;2024-01-15T14:58:01;3.42;;;1.20;;
49980;SDS011;35871;51.594;7.138;2024-01-15T15:03:02;3.13;;;1.20;;
49980;SDS011;35871;51.594;7.138;2024-01-15T15:13:08;2.25;;;0.90;;
49980;SDS011;35871;51.594;7.138;2024-01-15T15:18:10;4.18;;;1.80;;
49980;SDS011;35871;51.594;7.138;2024-01-15T15:23:11;2.15;;;1.08;;
49980;SDS011;35871;51.594;7.138;2024-01-15T15:28:12;2.63;;;1.17;;
49980;SDS011;35871;51.594;7.138;2024-01-15T15:33:14;3.40;;;1.10;;
49980;SDS011;35871;51.594;7.138;2024-01-15T15:38:16;2.20;;;1.10;;
49980;SDS011;35871;51.594;7.138;2024-01-15T15:48:18;3.35;;;1.65;;
49980;SDS011;35871;51.594;7.138;2024-01-15T15:53:19;1.65;;;1.02;;
49980;SDS011;35871;51.594;7.138;2024-01-15T15:58:22;2.17;;;1.00;;
49980;SDS011;35871;51.594;7.138;2024-01-15T16:03:23;1.50;;;0.70;;
49980;SDS011;35871;51.594;7.138;2024-01-15T16:08:24;1.73;;;0.73;;
49980;SDS011;35871;51.594;7.138;2024-01-15T16:13:25;2.58;;;1.33;;
49980;SDS011;35871;51.594;7.138;2024-01-15T16:18:26;2.22;;;0.90;;
49980;SDS011;35871;51.594;7.138;2024-01-15T16:23:27;1.90;;;1.10;;
49980;SDS011;35871;51.594;7.138;2024-01-15T16:28:28;4.28;;;1.00;;
49980;SDS011;35871;51.594;7.138;2024-01-15T16:33:29;2.72;;;1.63;;
49980;SDS011;35871;51.594;7.138;2024-01-15T16:38:30;2.53;;;0.93;;
49980;SDS011;35871;51.594;7.138;2024-01-15T16:43:31;3.00;;;1.20;;
49980;SDS011;35871;51.594;7.138;2024-01-15T16:48:32;3.60;;;1.58;;
49980;SDS011;35871;51.594;7.138;2024-01-15T16:53:33;3.15;;;1.05;;
49980;SDS011;35871;51.594;7.138;2024-01-15T16:58:34;3.90;;;1.58;;
49980;SDS011;35871;51.594;7.138;2024-01-15T17:03:35;2.55;;;1.25;;
49980;SDS011;35871;51.594;7.138;2024-01-15T17:08:36;4.03;;;1.48;;
49980;SDS011;35871;51.594;7.138;2024-01-15T17:13:37;2.33;;;1.20;;
49980;SDS011;35871;51.594;7.138;2024-01-15T17:18:38;4.13;;;1.50;;
49980;SDS011;35871;51.594;7.138;2024-01-15T17:23:39;2.83;;;1.40;;
49980;SDS011;35871;51.594;7.138;2024-01-15T17:28:40;3.50;;;1.88;;
49980;SDS011;35871;51.594;7.138;2024-01-15T17:33:42;5.50;;;2.72;;
49980;SDS011;35871;51.594;7.138;2024-01-15T17:38:43;3.42;;;2.30;;
49980;SDS011;35871;51.594;7.138;2024-01-15T17:43:44;3.08;;;1.65;;
49980;SDS011;35871;51.594;7.138;2024-01-15T17:53:46;5.68;;;2.83;;
49980;SDS011;35871;51.594;7.138;2024-01-15T17:58:47;5.20;;;3.00;;
49980;SDS011;35871;51.594;7.138;2024-01-15T18:03:50;6.60;;;3.95;;
49980;SDS011;35871;51.594;7.138;2024-01-15T18:08:52;6.43;;;2.75;;
49980;SDS011;35871;51.594;7.138;2024-01-15T18:13:54;5.18;;;2.38;;
49980;SDS011;35871;51.594;7.138;2024-01-15T18:18:55;5.82;;;2.40;;
49980;SDS011;35871;51.594;7.138;2024-01-15T18:23:56;4.45;;;2.53;;
49980;SDS011;35871;51.594;7.138;2024-01-15T18:28:57;3.50;;;1.90;;
49980;SDS011;35871;51.594;7.138;2024-01-15T18:38:59;5.00;;;1.77;;
49980;SDS011;35871;51.594;7.138;2024-01-15T18:44:05;7.03;;;2.42;;
49980;SDS011;35871;51.594;7.138;2024-01-15T18:49:07;5.25;;;2.28;;
49980;SDS011;35871;51.594;7.138;2024-01-15T18:54:08;5.20;;;2.70;;
49980;SDS011;35871;51.594;7.138;2024-01-15T18:59:09;6.53;;;2.10;;
49980;SDS011;35871;51.594;7.138;2024-01-15T19:04:11;5.03;;;2.30;;
49980;SDS011;35871;51.594;7.138;2024-01-15T19:09:12;4.60;;;1.50;;
49980;SDS011;35871;51.594;7.138;2024-01-15T19:14:13;4.07;;;1.40;;
49980;SDS011;35871;51.594;7.138;2024-01-15T19:19:14;5.53;;;2.38;;
49980;SDS011;35871;51.594;7.138;2024-01-15T19:24:15;5.18;;;2.35;;
49980;SDS011;35871;51.594;7.138;2024-01-15T19:29:17;5.38;;;2.30;;
49980;SDS011;35871;51.594;7.138;2024-01-15T19:34:18;4.25;;;2.08;;
49980;SDS011;35871;51.594;7.138;2024-01-15T19:39:19;5.53;;;2.15;;
49980;SDS011;35871;51.594;7.138;2024-01-15T19:44:21;5.07;;;2.22;;
49980;SDS011;35871;51.594;7.138;2024-01-15T19:49:22;6.70;;;3.15;;
49980;SDS011;35871;51.594;7.138;2024-01-15T19:54:23;4.32;;;2.13;;
49980;SDS011;35871;51.594;7.138;2024-01-15T19:59:24;5.20;;;2.17;;
49980;SDS011;35871;51.594;7.138;2024-01-15T20:04:25;3.55;;;1.63;;
